Time;durP1;ratioP1;P1;durP2;ratioP2;P2;SDS_P1;SDS_P2;PMS_P1;PMS_P2;Temp;Humidity;BMP_temperature;BMP_pressure;BME280_temperature;BME280_humidity;BME280_pressure;Samples;Min_cycle;Max_cycle;Signal;HPM_P1;HPM_P2
2023/11/02 00:00:23;;;;;;;1.90;1.30;;;9.00;99.90;;;;;;463828;254;28004;-73
2023/11/02 00:02:26;;;;;;;2.30;1.57;;;9.00;99.90;;;;;;463828;254;27796;-72
2023/11/02 00:04:27;;;;;;;1.83;1.20;;;9.00;99.90;;;;;;463798;254;28345;-72
2023/11/02 00:06:28;;;;;;;2.50;1.20;;;9.00;99.90;;;;;;463806;254;28093;-72
2023/11/02 00:08:29;;;;;;;1.50;1.40;;;9.00;99.90;;;;;;463815;254;27979;-72
2023/11/02 00:10:31;;;;;;;1.57;1.33;;;9.00;99.90;;;;;;463852;254;28086;-71
2023/11/02 00:12:32;;;;;;;1.60;1.50;;;9.00;99.90;;;;;;463835;254;27729;-72
2023/11/02 00:14:33;;;;;;;3.97;1.63;;;9.00;99.90;;;;;;463850;254;28001;-72
2023/11/02 00:16:35;;;;;;;2.90;1.50;;;8.90;99.90;;;;;;463808;256;28161;-73
2023/11/02 00:18:36;;;;;;;2.97;1.80;;;8.90;99.90;;;;;;463738;254;28620;-72
2023/11/02 00:20:37;;;;;;;2.67;1.53;;;8.90;99.90;;;;;;463616;256;29099;-71
2023/11/02 00:22:38;;;;;;;3.43;1.60;;;8.90;99.90;;;;;;463721;254;28441;-72
2023/11/02 00:24:40;;;;;;;2.50;1.57;;;8.90;99.90;;;;;;463769;254;28603;-72
2023/11/02 00:26:41;;;;;;;2.17;1.50;;;8.90;99.90;;;;;;463786;254;28085;-72
2023/11/02 00:28:43;;;;;;;3.80;1.47;;;8.90;99.90;;;;;;463782;254;28531;-72
2023/11/02 00:30:48;;;;;;;2.63;1.70;;;8.90;99.90;;;;;;463828;254;28030;-72
2023/11/02 00:32:48;;;;;;;1.63;1.27;;;9.00;99.90;;;;;;463731;256;28036;-71
2023/11/02 00:34:49;;;;;;;2.93;1.60;;;9.00;99.90;;;;;;463793;254;28037;-71
2023/11/02 00:36:51;;;;;;;2.73;1.40;;;8.90;99.90;;;;;;463776;256;28080;-71
2023/11/02 00:38:52;;;;;;;1.40;1.30;;;8.90;99.90;;;;;;463844;254;28166;-72
2023/11/02 00:40:53;;;;;;;2.00;1.50;;;8.90;99.90;;;;;;463818;254;27852;-72
2023/11/02 00:42:54;;;;;;;2.13;1.47;;;8.90;99.90;;;;;;463759;254;27880;-72
2023/11/02 00:44:56;;;;;;;2.10;1.47;;;8.90;99.90;;;;;;463764;254;28056;-74
2023/11/02 00:46:57;;;;;;;2.10;1.40;;;8.80;99.90;;;;;;463758;254;28074;-72
2023/11/02 00:48:58;;;;;;;3.10;1.53;;;8.80;99.90;;;;;;463814;254;28137;-72
2023/11/02 00:50:59;;;;;;;1.50;1.40;;;8.90;99.90;;;;;;463749;254;28022;-72
2023/11/02 00:53:01;;;;;;;1.97;1.70;;;8.80;99.90;;;;;;463808;254;28450;-71
2023/11/02 00:55:03;;;;;;;1.40;1.30;;;8.80;99.90;;;;;;463864;254;28482;-73
2023/11/02 00:57:05;;;;;;;2.93;1.57;;;8.80;99.90;;;;;;463849;254;27981;-72
2023/11/02 00:59:06;;;;;;;1.30;1.20;;;8.80;99.90;;;;;;463851;254;28109;-73
2023/11/02 01:01:07;;;;;;;1.30;1.20;;;8.80;99.90;;;;;;463827;254;27984;-72
2023/11/02 01:03:08;;;;;;;7.60;1.73;;;8.80;99.90;;;;;;463803;254;28402;-72
2023/11/02 01:05:10;;;;;;;2.03;1.40;;;8.80;99.90;;;;;;463759;254;28786;-72
2023/11/02 01:07:11;;;;;;;3.00;1.50;;;8.80;99.90;;;;;;463702;256;28532;-72
2023/11/02 01:09:12;;;;;;;2.10;1.40;;;8.70;99.90;;;;;;463770;254;28528;-72
2023/11/02 01:11:14;;;;;;;5.73;1.60;;;8.80;99.90;;;;;;463767;254;28468;-72
2023/11/02 01:13:15;;;;;;;3.20;1.20;;;8.70;99.90;;;;;;463655;256;28551;-72
2023/11/02 01:15:16;;;;;;;2.73;1.53;;;8.70;99.90;;;;;;463828;254;28048;-72
2023/11/02 01:17:18;;;;;;;1.30;1.20;;;8.70;99.90;;;;;;463843;254;27954;-72
2023/11/02 01:19:18;;;;;;;2.53;1.50;;;8.70;99.90;;;;;;463842;254;27889;-73
2023/11/02 01:21:20;;;;;;;1.53;1.37;;;8.70;99.90;;;;;;463810;254;27820;-72
2023/11/02 01:23:21;;;;;;;3.37;1.40;;;8.70;99.90;;;;;;463806;254;27984;-72
2023/11/02 01:25:22;;;;;;;2.87;1.53;;;8.70;99.90;;;;;;463773;254;28118;-74
2023/11/02 01:27:24;;;;;;;2.07;1.40;;;8.60;99.90;;;;;;463751;254;27716;-71
2023/11/02 01:29:25;;;;;;;1.43;1.30;;;8.70;99.90;;;;;;463745;254;28035;-72
2023/11/02 01:31:26;;;;;;;1.80;1.23;;;8.70;99.90;;;;;;463759;254;27982;-72
2023/11/02 01:33:27;;;;;;;1.40;1.20;;;8.70;99.90;;;;;;463809;254;28222;-72
2023/11/02 01:35:28;;;;;;;1.47;1.37;;;8.70;99.90;;;;;;463822;254;28074;-72
2023/11/02 01:37:30;;;;;;;6.40;1.60;;;8.70;99.90;;;;;;463825;254;27844;-72
2023/11/02 01:39:31;;;;;;;1.10;1.10;;;8.80;99.90;;;;;;463852;254;28003;-72
2023/11/02 01:41:32;;;;;;;2.13;1.40;;;8.70;99.90;;;;;;463815;254;28534;-72
2023/11/02 01:43:33;;;;;;;1.50;1.40;;;8.70;99.90;;;;;;463849;254;28517;-72
2023/11/02 01:45:35;;;;;;;2.60;1.37;;;8.70;99.90;;;;;;463768;256;28520;-73
2023/11/02 01:47:36;;;;;;;2.10;1.20;;;8.70;99.90;;;;;;463755;254;28504;-72
2023/11/02 01:49:37;;;;;;;2.40;1.57;;;8.70;99.90;;;;;;463750;254;28652;-71
2023/11/02 01:51:40;;;;;;;9.93;1.50;;;8.70;99.90;;;;;;463762;254;28562;-72
2023/11/02 01:53:40;;;;;;;1.20;1.20;;;8.80;99.90;;;;;;463827;254;27855;-72
2023/11/02 01:55:41;;;;;;;4.70;1.50;;;8.70;99.90;;;;;;463840;254;27804;-72
2023/11/02 01:57:42;;;;;;;2.17;1.23;;;8.70;99.90;;;;;;463761;254;27996;-71
2023/11/02 01:59:46;;;;;;;3.20;1.37;;;8.80;99.90;;;;;;463775;254;28131;-72
2023/11/02 02:01:50;;;;;;;2.20;1.30;;;8.70;99.90;;;;;;463776;254;27762;-71
2023/11/02 02:03:49;;;;;;;1.33;1.23;;;8.80;99.90;;;;;;463507;256;28022;-72
2023/11/02 02:05:50;;;;;;;1.50;1.40;;;8.80;99.90;;;;;;463588;256;28407;-72
2023/11/02 02:07:51;;;;;;;2.80;1.40;;;8.80;99.90;;;;;;463752;254;28590;-72
2023/11/02 02:09:54;;;;;;;3.00;1.57;;;8.80;99.90;;;;;;463815;254;28521;-73
2023/11/02 02:11:56;;;;;;;5.10;2.23;;;8.80;99.90;;;;;;463764;254;28035;-72
2023/11/02 02:13:57;;;;;;;3.47;1.60;;;8.80;99.90;;;;;;463779;254;27872;-72
2023/11/02 02:15:58;;;;;;;2.00;1.80;;;8.80;99.90;;;;;;463761;254;28001;-72
2023/11/02 02:18:00;;;;;;;4.30;1.90;;;8.80;99.90;;;;;;463758;254;28615;-72
2023/11/02 02:20:01;;;;;;;2.70;1.77;;;8.80;99.90;;;;;;463760;254;28915;-73
2023/11/02 02:22:03;;;;;;;4.83;2.00;;;8.80;99.90;;;;;;463794;254;28553;-72
2023/11/02 02:24:04;;;;;;;3.37;1.60;;;8.90;99.90;;;;;;463778;254;28078;-72
2023/11/02 02:26:05;;;;;;;4.00;1.67;;;8.90;99.90;;;;;;463654;256;28501;-72
2023/11/02 02:28:07;;;;;;;3.77;1.70;;;9.00;99.90;;;;;;463768;254;28527;-72
2023/11/02 02:30:08;;;;;;;3.40;2.80;;;8.90;99.90;;;;;;463720;256;28281;-72
2023/11/02 02:32:09;;;;;;;3.40;2.03;;;9.00;99.90;;;;;;463821;254;28335;-72
2023/11/02 02:34:11;;;;;;;5.40;1.53;;;9.00;99.90;;;;;;463792;254;28166;-71
2023/11/02 02:36:12;;;;;;;2.33;1.60;;;9.00;99.90;;;;;;463754;254;27787;-73
2023/11/02 02:38:13;;;;;;;1.77;1.50;;;9.10;99.90;;;;;;463775;254;27994;-73
2023/11/02 02:40:14;;;;;;;3.07;1.30;;;9.10;99.90;;;;;;463812;254;27946;-71
2023/11/02 02:42:16;;;;;;;5.97;1.80;;;9.10;99.90;;;;;;463747;254;28791;-72
2023/11/02 02:44:17;;;;;;;1.50;1.40;;;9.20;99.90;;;;;;463739;254;29205;-72
2023/11/02 02:46:19;;;;;;;1.90;1.30;;;9.20;99.90;;;;;;463769;254;28516;-72
2023/11/02 02:48:20;;;;;;;1.90;1.33;;;9.20;99.90;;;;;;463687;256;28537;-73
2023/11/02 02:50:21;;;;;;;2.87;1.30;;;9.20;99.90;;;;;;463749;254;28431;-73
2023/11/02 02:52:23;;;;;;;1.93;1.40;;;9.20;99.90;;;;;;463746;254;28393;-72
2023/11/02 02:54:24;;;;;;;2.37;1.07;;;9.20;99.90;;;;;;463845;254;28264;-72
2023/11/02 02:56:25;;;;;;;4.63;1.80;;;9.20;99.90;;;;;;463849;254;28102;-72
2023/11/02 02:58:26;;;;;;;3.30;1.50;;;9.20;99.90;;;;;;463803;254;28138;-72
2023/11/02 03:00:28;;;;;;;1.67;1.57;;;9.20;99.90;;;;;;463809;254;27871;-72
2023/11/02 03:02:29;;;;;;;2.30;1.33;;;9.30;99.90;;;;;;463714;256;27973;-72
2023/11/02 03:04:30;;;;;;;1.73;1.30;;;9.30;99.90;;;;;;463778;254;28031;-72
2023/11/02 03:06:31;;;;;;;3.17;1.53;;;9.30;99.90;;;;;;463775;254;27790;-74
2023/11/02 03:08:33;;;;;;;6.27;2.00;;;9.30;99.90;;;;;;463737;254;28400;-72
2023/11/02 03:10:34;;;;;;;2.20;1.40;;;9.30;99.90;;;;;;463737;254;28030;-73
2023/11/02 03:12:35;;;;;;;2.20;1.80;;;9.30;99.90;;;;;;463714;254;27589;-72
2023/11/02 03:14:38;;;;;;;2.57;1.90;;;9.30;99.90;;;;;;463726;254;28010;-72
2023/11/02 03:16:38;;;;;;;1.63;1.20;;;9.20;99.90;;;;;;463645;256;27632;-73
2023/11/02 03:18:39;;;;;;;2.23;1.20;;;9.30;99.90;;;;;;463783;254;27827;-71
2023/11/02 03:20:40;;;;;;;1.90;1.40;;;9.30;99.90;;;;;;463752;254;28043;-72
2023/11/02 03:22:45;;;;;;;2.73;1.30;;;9.30;99.90;;;;;;463764;254;28193;-72
2023/11/02 03:24:43;;;;;;;2.93;1.33;;;9.20;99.90;;;;;;463404;256;28601;-72
2023/11/02 03:26:44;;;;;;;3.60;1.70;;;9.20;99.90;;;;;;463796;254;28556;-72
2023/11/02 03:28:45;;;;;;;3.67;1.53;;;9.20;99.90;;;;;;463770;254;28316;-72
2023/11/02 03:30:46;;;;;;;2.43;1.30;;;9.20;99.90;;;;;;463778;254;28652;-73
2023/11/02 03:32:48;;;;;;;3.00;1.37;;;9.10;99.90;;;;;;463782;254;28202;-72
2023/11/02 03:34:49;;;;;;;2.10;1.47;;;9.10;99.90;;;;;;463811;254;27860;-72
2023/11/02 03:36:50;;;;;;;3.23;1.40;;;9.10;99.90;;;;;;463779;254;28013;-73
2023/11/02 03:38:51;;;;;;;1.30;1.20;;;9.10;99.90;;;;;;463793;254;27946;-72
2023/11/02 03:40:53;;;;;;;2.47;1.23;;;9.20;99.90;;;;;;463779;254;28099;-72
2023/11/02 03:42:54;;;;;;;3.50;1.30;;;9.20;99.90;;;;;;463776;254;28097;-72
2023/11/02 03:44:55;;;;;;;1.30;1.07;;;9.20;99.90;;;;;;463775;254;27878;-72
2023/11/02 03:46:56;;;;;;;0.97;0.97;;;9.20;99.90;;;;;;463788;254;27672;-72
2023/11/02 03:48:58;;;;;;;2.47;1.37;;;9.20;99.90;;;;;;463780;254;27931;-72
2023/11/02 03:50:59;;;;;;;3.10;1.37;;;9.20;99.90;;;;;;463753;254;27870;-72
2023/11/02 03:53:00;;;;;;;2.73;1.53;;;9.20;99.90;;;;;;463861;254;28047;-74
2023/11/02 03:55:01;;;;;;;1.83;1.43;;;9.20;99.90;;;;;;463821;254;28158;-72
2023/11/02 03:57:03;;;;;;;2.30;1.40;;;9.10;99.90;;;;;;463826;254;27927;-72
2023/11/02 03:59:04;;;;;;;2.20;1.30;;;9.20;99.90;;;;;;463847;254;28555;-73
2023/11/02 04:01:05;;;;;;;1.23;1.03;;;9.10;99.90;;;;;;463806;254;28290;-72
2023/11/02 04:03:07;;;;;;;4.80;0.90;;;9.10;99.90;;;;;;463857;254;28230;-72
2023/11/02 04:05:08;;;;;;;1.53;1.30;;;9.10;99.90;;;;;;463780;254;28431;-72
2023/11/02 04:07:09;;;;;;;1.10;1.00;;;9.20;99.90;;;;;;463794;254;28664;-72
2023/11/02 04:09:10;;;;;;;3.00;1.13;;;9.20;99.90;;;;;;463850;254;28064;-72
2023/11/02 04:11:13;;;;;;;1.47;1.30;;;9.20;99.90;;;;;;463893;254;28046;-72
2023/11/02 04:13:13;;;;;;;1.33;1.23;;;9.20;99.90;;;;;;463716;254;28255;-72
2023/11/02 04:15:18;;;;;;;1.70;1.17;;;9.10;99.90;;;;;;463781;254;28216;-72
2023/11/02 04:17:16;;;;;;;2.23;1.20;;;9.10;99.90;;;;;;463511;256;28525;-72
2023/11/02 04:19:17;;;;;;;3.03;1.43;;;9.10;99.90;;;;;;463782;254;28376;-72
2023/11/02 04:21:18;;;;;;;2.23;1.30;;;9.10;99.90;;;;;;463789;254;28034;-72
2023/11/02 04:23:20;;;;;;;1.30;1.20;;;9.10;99.90;;;;;;463825;254;27983;-72
2023/11/02 04:25:21;;;;;;;1.40;1.30;;;9.10;99.90;;;;;;463769;254;28599;-72
2023/11/02 04:27:23;;;;;;;1.30;1.20;;;9.10;99.90;;;;;;463760;254;28374;-74
2023/11/02 04:29:24;;;;;;;3.67;1.40;;;9.10;99.90;;;;;;463759;254;28308;-72
2023/11/02 04:31:25;;;;;;;2.80;1.20;;;9.00;99.90;;;;;;463829;254;28596;-72
2023/11/02 04:33:26;;;;;;;1.47;1.33;;;9.00;99.90;;;;;;463825;254;28151;-71
2023/11/02 04:35:28;;;;;;;1.30;1.10;;;9.00;99.90;;;;;;463837;254;28070;-72
2023/11/02 04:37:29;;;;;;;4.73;1.30;;;9.00;99.90;;;;;;463838;254;28099;-72
2023/11/02 04:39:30;;;;;;;1.73;1.30;;;9.00;99.90;;;;;;463816;254;27998;-72
2023/11/02 04:41:31;;;;;;;2.40;1.73;;;8.90;99.90;;;;;;463802;254;27767;-72
2023/11/02 04:43:33;;;;;;;1.37;1.27;;;8.90;99.90;;;;;;463841;254;27951;-72
2023/11/02 04:45:36;;;;;;;3.43;1.47;;;8.90;99.90;;;;;;463887;254;27721;-73
2023/11/02 04:47:35;;;;;;;7.37;1.80;;;8.90;99.90;;;;;;463685;256;27705;-72
2023/11/02 04:49:36;;;;;;;2.53;1.10;;;8.80;99.90;;;;;;463822;254;28441;-72
2023/11/02 04:51:38;;;;;;;2.97;1.50;;;8.90;99.90;;;;;;463836;254;27780;-72
2023/11/02 04:53:39;;;;;;;2.90;1.50;;;8.90;99.90;;;;;;463785;256;28051;-73
2023/11/02 04:55:41;;;;;;;3.40;1.60;;;8.90;99.90;;;;;;463847;254;28422;-72
2023/11/02 04:57:41;;;;;;;4.97;1.70;;;8.80;99.90;;;;;;463747;254;28629;-72
2023/11/02 04:59:43;;;;;;;2.50;1.33;;;8.70;99.90;;;;;;463780;254;28104;-72
2023/11/02 05:01:44;;;;;;;3.60;1.40;;;8.70;99.90;;;;;;463785;254;28009;-72
2023/11/02 05:03:45;;;;;;;1.83;1.20;;;8.70;99.90;;;;;;463776;254;27784;-73
2023/11/02 05:05:46;;;;;;;1.23;1.10;;;8.70;99.90;;;;;;463822;254;28031;-72
2023/11/02 05:07:48;;;;;;;4.33;1.23;;;8.70;99.90;;;;;;463752;254;28069;-73
2023/11/02 05:09:49;;;;;;;3.27;1.53;;;8.70;99.90;;;;;;463825;254;28183;-72
2023/11/02 05:11:51;;;;;;;1.93;1.10;;;8.70;99.90;;;;;;463857;254;27641;-72
2023/11/02 05:13:52;;;;;;;4.53;1.30;;;8.70;99.90;;;;;;463851;254;28097;-72
2023/11/02 05:15:58;;;;;;;5.17;1.40;;;8.70;99.90;;;;;;463851;254;28533;-73
2023/11/02 05:17:55;;;;;;;2.40;1.60;;;8.70;99.90;;;;;;463463;256;28571;-72
2023/11/02 05:19:56;;;;;;;5.47;1.40;;;8.70;99.90;;;;;;463760;254;28106;-72
2023/11/02 05:21:57;;;;;;;1.50;1.40;;;8.70;99.90;;;;;;463781;254;28022;-72
2023/11/02 05:23:59;;;;;;;2.67;1.53;;;8.60;99.90;;;;;;463792;254;27661;-72
2023/11/02 05:26:00;;;;;;;6.17;1.97;;;8.60;99.90;;;;;;463754;254;28569;-72
2023/11/02 05:28:01;;;;;;;2.20;1.40;;;8.60;99.90;;;;;;463757;256;28480;-72
2023/11/02 05:30:03;;;;;;;1.93;1.30;;;8.60;99.90;;;;;;463750;254;28457;-71
2023/11/02 05:32:04;;;;;;;2.30;1.20;;;8.60;99.90;;;;;;463751;254;28516;-72
2023/11/02 05:34:05;;;;;;;2.30;1.30;;;8.70;99.90;;;;;;463777;251;29537;-72
2023/11/02 05:36:06;;;;;;;2.90;1.40;;;8.60;99.90;;;;;;463780;254;27779;-72
2023/11/02 05:38:08;;;;;;;2.03;1.40;;;8.60;99.90;;;;;;463844;254;27914;-71
2023/11/02 05:40:09;;;;;;;2.80;1.93;;;8.60;99.90;;;;;;463814;254;27999;-72
2023/11/02 05:42:10;;;;;;;1.53;1.10;;;8.60;99.90;;;;;;463842;254;28032;-72
2023/11/02 05:44:11;;;;;;;2.97;1.63;;;8.60;99.90;;;;;;463838;254;28024;-72
2023/11/02 05:46:13;;;;;;;1.13;1.00;;;8.60;99.90;;;;;;463852;254;27861;-72
2023/11/02 05:48:14;;;;;;;2.40;1.27;;;8.70;99.90;;;;;;463822;254;27992;-73
2023/11/02 05:50:17;;;;;;;1.90;1.10;;;8.70;99.90;;;;;;463839;254;27999;-71
2023/11/02 05:52:16;;;;;;;1.80;1.30;;;8.70;99.90;;;;;;463738;256;28628;-72
2023/11/02 05:54:18;;;;;;;1.87;1.30;;;8.70;99.90;;;;;;463847;254;28286;-72
2023/11/02 05:56:19;;;;;;;2.73;1.23;;;8.70;99.90;;;;;;463778;254;27745;-72
2023/11/02 05:58:20;;;;;;;2.00;1.20;;;8.70;99.90;;;;;;463758;254;28192;-72
2023/11/02 06:00:21;;;;;;;2.00;1.30;;;8.70;99.90;;;;;;463757;254;28029;-72
2023/11/02 06:02:23;;;;;;;1.43;1.30;;;8.70;99.90;;;;;;463760;254;28614;-72
2023/11/02 06:04:26;;;;;;;2.97;1.30;;;8.70;99.90;;;;;;463755;254;28105;-73
2023/11/02 06:06:27;;;;;;;2.97;1.30;;;8.80;99.90;;;;;;463823;254;27990;-72
2023/11/02 06:08:28;;;;;;;4.40;1.30;;;8.80;99.90;;;;;;463763;254;27677;-72
2023/11/02 06:10:29;;;;;;;2.50;1.30;;;8.80;99.90;;;;;;463817;254;27900;-72
2023/11/02 06:12:31;;;;;;;1.40;1.30;;;8.80;99.90;;;;;;463814;254;28665;-72
2023/11/02 06:14:32;;;;;;;4.70;1.63;;;8.80;99.90;;;;;;463616;256;29038;-72
2023/11/02 06:16:33;;;;;;;1.80;1.40;;;8.90;99.90;;;;;;463768;254;28572;-71
2023/11/02 06:18:34;;;;;;;2.40;1.50;;;8.90;99.90;;;;;;463618;256;28504;-72
2023/11/02 06:20:36;;;;;;;2.20;1.10;;;8.90;99.90;;;;;;463787;254;28481;-72
2023/11/02 06:22:37;;;;;;;1.43;1.30;;;8.90;99.90;;;;;;463748;254;28542;-72
2023/11/02 06:24:39;;;;;;;4.20;1.50;;;8.90;99.90;;;;;;463788;254;28177;-73
2023/11/02 06:26:40;;;;;;;1.67;1.53;;;8.90;99.90;;;;;;463686;256;28096;-72
2023/11/02 06:28:41;;;;;;;3.80;1.47;;;8.90;99.90;;;;;;463727;254;28042;-73
2023/11/02 06:30:42;;;;;;;1.20;1.20;;;8.90;99.90;;;;;;463768;254;27942;-72
2023/11/02 06:32:43;;;;;;;4.87;1.70;;;8.90;99.90;;;;;;463804;254;28026;-72
2023/11/02 06:34:44;;;;;;;1.37;1.27;;;8.90;99.90;;;;;;463837;254;27937;-73
2023/11/02 06:36:45;;;;;;;1.43;1.30;;;8.90;99.90;;;;;;463824;254;27985;-72
2023/11/02 06:38:47;;;;;;;1.47;1.23;;;8.90;99.90;;;;;;463853;254;27664;-72
2023/11/02 06:40:48;;;;;;;2.07;1.20;;;9.00;99.90;;;;;;463816;254;27985;-73
2023/11/02 06:42:52;;;;;;;1.43;1.20;;;9.00;99.90;;;;;;463774;254;27669;-72
2023/11/02 06:44:54;;;;;;;1.20;1.20;;;8.90;99.90;;;;;;463771;254;28088;-72
2023/11/02 06:46:55;;;;;;;2.20;1.10;;;9.00;99.90;;;;;;463767;254;28158;-72
2023/11/02 06:48:56;;;;;;;1.33;1.23;;;9.00;99.90;;;;;;463749;254;27768;-72
2023/11/02 06:50:57;;;;;;;1.60;1.20;;;9.00;99.90;;;;;;463736;254;27894;-72
2023/11/02 06:52:58;;;;;;;2.40;1.23;;;9.00;99.90;;;;;;463822;254;28476;-74
2023/11/02 06:55:00;;;;;;;3.33;1.70;;;9.00;99.90;;;;;;463596;256;27950;-72
2023/11/02 06:57:01;;;;;;;2.40;1.60;;;9.00;99.90;;;;;;463744;254;28069;-72
2023/11/02 06:59:02;;;;;;;1.50;1.40;;;9.00;99.90;;;;;;463759;254;27875;-72
2023/11/02 07:01:04;;;;;;;1.80;1.47;;;8.90;99.90;;;;;;463860;254;28206;-72
2023/11/02 07:03:05;;;;;;;1.53;1.30;;;8.90;99.90;;;;;;463820;254;28450;-73
2023/11/02 07:05:06;;;;;;;1.47;1.30;;;9.00;99.90;;;;;;463826;254;28309;-72
2023/11/02 07:07:07;;;;;;;3.07;1.50;;;9.00;99.90;;;;;;463749;254;28649;-72
2023/11/02 07:09:09;;;;;;;1.43;1.20;;;9.00;99.90;;;;;;463733;254;28688;-72
2023/11/02 07:11:10;;;;;;;2.73;1.53;;;9.00;99.90;;;;;;463693;254;28014;-72
2023/11/02 07:13:13;;;;;;;1.37;1.27;;;9.10;99.90;;;;;;463758;254;28053;-72
2023/11/02 07:15:13;;;;;;;1.80;1.70;;;9.10;99.90;;;;;;463559;256;28042;-72
2023/11/02 07:17:14;;;;;;;1.57;1.47;;;9.10;99.90;;;;;;463701;254;27870;-72
2023/11/02 07:19:15;;;;;;;1.17;1.17;;;9.10;99.90;;;;;;463726;254;28093;-72
2023/11/02 07:21:16;;;;;;;3.53;1.60;;;9.10;99.90;;;;;;463786;254;27864;-72
2023/11/02 07:23:17;;;;;;;2.97;1.40;;;9.00;99.90;;;;;;463701;254;28045;-72
2023/11/02 07:25:18;;;;;;;1.17;1.07;;;9.10;99.90;;;;;;463743;254;28059;-72
2023/11/02 07:27:20;;;;;;;1.70;1.30;;;9.00;99.90;;;;;;463822;254;28000;-72
2023/11/02 07:29:21;;;;;;;1.40;1.30;;;9.10;99.90;;;;;;463756;254;28219;-74
2023/11/02 07:31:22;;;;;;;1.43;1.30;;;9.00;99.90;;;;;;463739;254;28119;-72
2023/11/02 07:33:23;;;;;;;1.20;1.20;;;9.00;99.90;;;;;;463767;254;27984;-72
2023/11/02 07:35:25;;;;;;;1.27;1.17;;;9.00;99.90;;;;;;463767;254;27986;-72
2023/11/02 07:37:26;;;;;;;2.90;1.40;;;9.10;99.90;;;;;;463735;254;27643;-72
2023/11/02 07:39:31;;;;;;;1.40;1.30;;;9.10;99.90;;;;;;463768;254;28550;-73
2023/11/02 07:41:32;;;;;;;1.20;1.10;;;9.10;99.90;;;;;;463644;256;28122;-72
2023/11/02 07:43:33;;;;;;;1.40;1.30;;;9.10;99.90;;;;;;463759;254;27954;-72
2023/11/02 07:45:34;;;;;;;1.53;1.10;;;9.00;99.90;;;;;;463764;254;28071;-73
2023/11/02 07:47:35;;;;;;;2.30;1.20;;;9.10;99.90;;;;;;463667;256;28319;-74
2023/11/02 07:49:38;;;;;;;1.27;1.10;;;9.10;99.90;;;;;;463758;254;27860;-72
2023/11/02 07:51:38;;;;;;;1.73;1.30;;;9.10;99.90;;;;;;463619;254;28052;-72
2023/11/02 07:53:40;;;;;;;1.53;1.20;;;9.10;99.90;;;;;;463738;254;28024;-73
2023/11/02 07:55:43;;;;;;;1.73;1.50;;;9.10;99.90;;;;;;463726;254;27945;-72
2023/11/02 07:57:42;;;;;;;1.07;1.03;;;9.00;99.90;;;;;;463571;256;28592;-72
2023/11/02 07:59:43;;;;;;;1.23;1.20;;;9.10;99.90;;;;;;463739;254;28901;-72
2023/11/02 08:01:45;;;;;;;1.57;1.33;;;9.10;99.90;;;;;;463819;254;28461;-72
2023/11/02 08:03:46;;;;;;;4.23;1.40;;;9.10;99.90;;;;;;463718;254;28480;-73
2023/11/02 08:05:47;;;;;;;3.43;1.37;;;9.10;99.90;;;;;;463709;254;28564;-72
2023/11/02 08:07:48;;;;;;;1.47;1.27;;;9.10;99.90;;;;;;463685;254;27934;-72
2023/11/02 08:09:49;;;;;;;4.70;1.30;;;9.20;99.90;;;;;;463745;254;27923;-72
2023/11/02 08:11:51;;;;;;;2.60;1.90;;;9.20;99.90;;;;;;463744;254;27688;-72
2023/11/02 08:13:53;;;;;;;2.70;1.57;;;9.30;99.90;;;;;;463730;254;27922;-73
2023/11/02 08:15:53;;;;;;;2.27;1.50;;;9.30;99.90;;;;;;463578;256;28095;-72
2023/11/02 08:17:54;;;;;;;2.50;1.20;;;9.30;99.90;;;;;;463768;254;27944;-72
2023/11/02 08:19:56;;;;;;;2.40;1.20;;;9.40;99.90;;;;;;463793;254;27588;-73
2023/11/02 08:21:57;;;;;;;2.00;1.20;;;9.40;99.90;;;;;;463804;254;27609;-72
2023/11/02 08:23:58;;;;;;;1.23;1.23;;;9.50;99.90;;;;;;463829;254;28073;-72
2023/11/02 08:26:00;;;;;;;3.27;1.20;;;9.50;99.90;;;;;;463865;254;28069;-73
2023/11/02 08:28:01;;;;;;;1.00;1.00;;;9.60;99.90;;;;;;463851;254;28116;-72
2023/11/02 08:30:02;;;;;;;1.30;1.07;;;9.60;99.90;;;;;;463853;254;28048;-74
2023/11/02 08:32:03;;;;;;;1.37;1.27;;;9.60;99.90;;;;;;463821;254;28084;-72
2023/11/02 08:34:04;;;;;;;1.60;1.20;;;9.60;99.90;;;;;;463755;254;28035;-72
2023/11/02 08:36:06;;;;;;;1.20;1.13;;;9.70;99.90;;;;;;463777;254;29167;-72
2023/11/02 08:38:07;;;;;;;1.20;1.10;;;9.70;99.90;;;;;;463779;254;28375;-72
2023/11/02 08:40:08;;;;;;;3.17;1.10;;;9.70;99.90;;;;;;463790;254;28513;-72
2023/11/02 08:42:10;;;;;;;1.90;1.30;;;9.70;99.90;;;;;;463850;254;28447;-72
2023/11/02 08:44:11;;;;;;;1.47;1.37;;;9.70;99.90;;;;;;463760;254;28599;-72
2023/11/02 08:46:12;;;;;;;8.00;4.07;;;9.70;99.90;;;;;;463768;254;28647;-72
2023/11/02 08:48:13;;;;;;;1.37;1.23;;;9.80;99.90;;;;;;463775;254;27969;-72
2023/11/02 08:50:14;;;;;;;4.50;1.40;;;9.70;99.90;;;;;;463800;254;28194;-72
2023/11/02 08:52:16;;;;;;;3.80;1.40;;;9.80;99.90;;;;;;463763;254;27698;-72
2023/11/02 08:54:17;;;;;;;1.30;1.20;;;9.80;99.90;;;;;;463757;254;28037;-72
2023/11/02 08:56:18;;;;;;;1.30;1.20;;;9.80;99.90;;;;;;463792;254;27840;-72
2023/11/02 08:58:19;;;;;;;1.40;1.30;;;9.80;99.90;;;;;;463777;254;28070;-72
2023/11/02 09:00:21;;;;;;;2.57;1.93;;;9.80;99.90;;;;;;463810;254;28144;-73
2023/11/02 09:02:22;;;;;;;1.67;1.30;;;9.80;99.90;;;;;;463831;254;28112;-72
2023/11/02 09:04:24;;;;;;;3.13;1.23;;;9.80;99.90;;;;;;463829;254;27980;-72
2023/11/02 09:06:24;;;;;;;1.63;1.30;;;9.80;99.90;;;;;;463742;254;28140;-72
2023/11/02 09:08:26;;;;;;;1.33;1.23;;;9.80;99.90;;;;;;463834;254;28071;-72
2023/11/02 09:10:27;;;;;;;1.13;1.13;;;9.80;99.90;;;;;;463827;254;28038;-72
2023/11/02 09:12:28;;;;;;;1.50;1.40;;;9.90;99.90;;;;;;463805;254;28209;-72
2023/11/02 09:14:29;;;;;;;1.87;1.20;;;9.80;99.90;;;;;;463817;254;28549;-72
2023/11/02 09:16:31;;;;;;;1.40;1.30;;;9.80;99.90;;;;;;463847;254;28493;-73
2023/11/02 09:18:32;;;;;;;1.30;1.20;;;9.80;99.90;;;;;;463837;254;28457;-72
2023/11/02 09:20:33;;;;;;;1.13;1.13;;;9.80;99.90;;;;;;463802;254;28491;-72
2023/11/02 09:22:36;;;;;;;1.47;1.37;;;9.80;99.90;;;;;;463771;254;28639;-72
2023/11/02 09:24:36;;;;;;;3.07;1.53;;;9.80;99.90;;;;;;463765;256;28296;-72
2023/11/02 09:26:46;;;;;;;1.33;1.10;;;9.80;99.90;;;;;;463826;254;28022;-72
2023/11/02 09:28:38;;;;;;;1.57;1.40;;;9.80;99.90;;;;;;462993;256;27939;-72
2023/11/02 09:30:39;;;;;;;1.20;1.20;;;9.80;99.90;;;;;;463843;254;27904;-72
2023/11/02 09:32:41;;;;;;;4.20;1.30;;;9.80;99.90;;;;;;463761;254;28038;-72
2023/11/02 09:34:42;;;;;;;1.40;1.30;;;9.80;99.90;;;;;;463779;254;27958;-72
2023/11/02 09:36:44;;;;;;;2.10;1.20;;;9.80;99.90;;;;;;463777;254;28088;-72
2023/11/02 09:38:45;;;;;;;2.07;1.70;;;9.80;99.90;;;;;;463725;254;28085;-72
2023/11/02 09:40:46;;;;;;;1.20;1.10;;;9.90;99.90;;;;;;463753;254;27869;-72
2023/11/02 09:42:48;;;;;;;1.40;1.27;;;9.80;99.90;;;;;;463798;254;28103;-72
2023/11/02 09:44:49;;;;;;;1.43;1.33;;;9.90;99.90;;;;;;463839;254;28002;-72
2023/11/02 09:46:50;;;;;;;2.23;1.30;;;9.90;99.90;;;;;;463856;254;27958;-72
2023/11/02 09:48:52;;;;;;;1.70;1.33;;;9.90;99.90;;;;;;463825;254;28037;-72
2023/11/02 09:50:53;;;;;;;1.50;1.40;;;9.90;99.90;;;;;;463722;256;27879;-72
2023/11/02 09:52:55;;;;;;;3.30;1.30;;;9.90;99.90;;;;;;463821;254;27992;-72
2023/11/02 09:54:56;;;;;;;12.03;1.60;;;9.90;99.90;;;;;;463739;256;27899;-72
2023/11/02 09:56:57;;;;;;;1.70;1.50;;;9.90;99.90;;;;;;463871;254;28145;-73
2023/11/02 09:58:59;;;;;;;1.57;1.47;;;10.00;99.90;;;;;;463876;254;27987;-73
2023/11/02 10:01:00;;;;;;;5.57;2.73;;;10.00;99.90;;;;;;463808;254;28128;-72
2023/11/02 10:03:01;;;;;;;1.60;1.50;;;10.00;99.90;;;;;;463766;254;29236;-72
2023/11/02 10:05:03;;;;;;;1.87;1.77;;;10.00;99.90;;;;;;463786;254;28603;-72
2023/11/02 10:07:05;;;;;;;2.97;1.80;;;10.00;99.90;;;;;;463823;254;27832;-72
2023/11/02 10:09:05;;;;;;;1.53;1.43;;;10.10;99.90;;;;;;463755;256;28092;-72
2023/11/02 10:11:06;;;;;;;1.73;1.63;;;10.00;99.90;;;;;;463770;254;28088;-72
2023/11/02 10:13:07;;;;;;;1.40;1.33;;;10.10;99.90;;;;;;463782;254;27778;-74
2023/11/02 10:15:09;;;;;;;2.07;1.53;;;10.10;99.90;;;;;;463764;252;28083;-73
2023/11/02 10:17:14;;;;;;;1.70;1.60;;;10.00;99.90;;;;;;463659;256;28104;-72
2023/11/02 10:19:14;;;;;;;1.53;1.30;;;10.00;99.90;;;;;;463660;256;28681;-72
2023/11/02 10:21:15;;;;;;;3.90;1.47;;;9.90;99.90;;;;;;463779;254;28307;-71
2023/11/02 10:23:16;;;;;;;3.13;1.50;;;10.00;99.90;;;;;;463806;254;28379;-72
2023/11/02 10:25:18;;;;;;;1.73;1.60;;;10.00;99.90;;;;;;463839;254;28381;-73
2023/11/02 10:27:19;;;;;;;1.70;1.60;;;10.00;99.90;;;;;;463777;254;28135;-72
2023/11/02 10:29:20;;;;;;;1.40;1.30;;;10.00;99.90;;;;;;463760;254;27982;-72
2023/11/02 10:31:23;;;;;;;1.60;1.50;;;10.00;99.90;;;;;;463768;254;27909;-73
2023/11/02 10:33:23;;;;;;;1.70;1.60;;;9.90;99.90;;;;;;463572;256;27861;-71
2023/11/02 10:35:24;;;;;;;3.40;1.57;;;9.90;99.90;;;;;;463741;254;27641;-73
2023/11/02 10:37:25;;;;;;;1.93;1.70;;;10.00;99.90;;;;;;463734;254;27880;-72